createdAt,value
2022-09-14T00:01:24.067Z,94898
2022-09-14T00:02:12.571Z,94901
2022-09-14T00:03:22.234Z,94901
2022-09-14T00:04:29.942Z,94904
2022-09-14T00:05:39.746Z,94896
2022-09-14T00:06:48.546Z,94895
2022-09-14T00:07:57.271Z,94901
2022-09-14T00:09:07.033Z,94899
2022-09-14T00:10:16.737Z,94894
2022-09-14T00:11:26.434Z,94896
2022-09-14T00:12:36.372Z,94898
2022-09-14T00:13:44.128Z,94898
2022-09-14T00:14:53.874Z,94895
2022-09-14T00:16:02.612Z,94895
2022-09-14T00:17:12.437Z,94888
2022-09-14T00:18:22.190Z,94888
2022-09-14T00:19:29.911Z,94885
2022-09-14T00:20:38.677Z,94883
2022-09-14T00:21:48.458Z,94878
2022-09-14T00:22:57.309Z,94877
2022-09-14T00:24:07.174Z,94874
2022-09-14T00:25:15.870Z,94874
2022-09-14T00:26:24.665Z,94876
2022-09-14T00:27:34.471Z,94875
2022-09-14T00:28:43.394Z,94881
2022-09-14T00:29:52.213Z,94878
2022-09-14T00:31:01.937Z,94873
2022-09-14T00:32:14.575Z,94876
2022-09-14T00:33:24.294Z,94871
2022-09-14T00:34:34.047Z,94876
2022-09-14T00:35:42.854Z,94872
2022-09-14T00:36:52.600Z,94870
2022-09-14T00:38:01.330Z,94868
2022-09-14T00:39:11.113Z,94873
2022-09-14T00:40:20.953Z,94873
2022-09-14T00:41:30.713Z,94872
2022-09-14T00:42:40.477Z,94867
2022-09-14T00:43:49.301Z,94867
2022-09-14T00:44:58.033Z,94869
2022-09-14T00:46:07.876Z,94865
2022-09-14T00:47:16.544Z,94859
2022-09-14T00:48:26.283Z,94858
2022-09-14T00:49:35.058Z,94852
2022-09-14T00:50:43.766Z,94859
2022-09-14T00:51:53.534Z,94858
2022-09-14T00:53:01.272Z,94857
2022-09-14T00:54:10.016Z,94849
2022-09-14T00:55:18.782Z,94850
2022-09-14T00:56:27.517Z,94846
2022-09-14T00:57:37.273Z,94851
2022-09-14T00:58:47.158Z,94846
2022-09-14T00:59:55.933Z,94845
2022-09-14T01:01:05.800Z,94849
2022-09-14T01:02:14.512Z,94849
2022-09-14T01:03:23.181Z,94848
2022-09-14T01:04:31.991Z,94844
2022-09-14T01:05:41.842Z,94841
2022-09-14T01:06:50.526Z,94840
2022-09-14T01:07:59.279Z,94833
2022-09-14T01:09:08.039Z,94833
2022-09-14T01:10:17.971Z,94832
2022-09-14T01:11:26.716Z,94836
2022-09-14T01:12:35.459Z,94840
2022-09-14T01:13:44.184Z,94835
2022-09-14T01:14:52.881Z,94839
2022-09-14T01:16:02.773Z,94832
2022-09-14T01:17:11.487Z,94831
2022-09-14T01:18:21.442Z,94821
2022-09-14T01:19:31.183Z,94816
2022-09-14T01:20:39.887Z,94807
2022-09-14T01:21:48.664Z,94809
2022-09-14T01:22:58.345Z,94804
2022-09-14T01:24:08.134Z,94806
2022-09-14T01:25:17.846Z,94804
2022-09-14T01:26:25.564Z,94807
2022-09-14T01:27:35.439Z,94805
2022-09-14T01:28:44.187Z,94797
2022-09-14T01:29:52.959Z,94792
2022-09-14T01:31:02.696Z,94788
2022-09-14T01:32:11.404Z,94790
2022-09-14T01:33:21.136Z,94793
2022-09-14T01:34:30.880Z,94800
2022-09-14T01:35:38.608Z,94797
2022-09-14T01:36:48.387Z,94800
2022-09-14T01:37:58.371Z,94794
2022-09-14T01:39:06.992Z,94791
2022-09-14T01:40:15.808Z,94790
2022-09-14T01:41:24.410Z,94785
2022-09-14T01:42:33.175Z,94792
2022-09-14T01:43:42.955Z,94786
2022-09-14T01:44:52.768Z,94789
2022-09-14T01:46:02.622Z,94791
2022-09-14T01:47:12.298Z,94790
2022-09-14T01:48:20.974Z,94791
2022-09-14T01:49:36.413Z,94790
2022-09-14T01:50:45.162Z,94791
2022-09-14T01:51:53.869Z,94788
2022-09-14T01:53:03.627Z,94787
2022-09-14T01:54:12.281Z,94780
2022-09-14T01:55:20.970Z,94780
2022-09-14T01:56:30.726Z,94778
2022-09-14T01:57:38.582Z,94774
2022-09-14T01:58:47.301Z,94775
2022-09-14T01:59:55.026Z,94772
2022-09-14T02:01:03.732Z,94772
2022-09-14T02:02:13.488Z,94775
2022-09-14T02:03:21.121Z,94769
2022-09-14T02:04:29.831Z,94769
2022-09-14T02:05:39.558Z,94767
2022-09-14T02:06:48.279Z,94765
2022-09-14T02:07:56.994Z,94765
2022-09-14T02:09:06.833Z,94768
2022-09-14T02:10:16.455Z,94766
2022-09-14T02:11:26.162Z,94763
2022-09-14T02:12:33.839Z,94765
2022-09-14T02:13:42.666Z,94766
2022-09-14T02:14:52.384Z,94768
2022-09-14T02:16:01.187Z,94772
2022-09-14T02:17:10.882Z,94769
2022-09-14T02:18:26.414Z,94766
2022-09-14T02:19:35.161Z,94769
2022-09-14T02:20:44.901Z,94767
2022-09-14T02:21:53.624Z,94762
2022-09-14T02:23:02.376Z,94760
2022-09-14T02:24:12.136Z,94761
2022-09-14T02:25:20.869Z,94759
2022-09-14T02:26:29.600Z,94761
2022-09-14T02:27:38.335Z,94758
2022-09-14T02:28:48.023Z,94761
2022-09-14T02:29:57.966Z,94759
2022-09-14T02:31:05.824Z,94760
2022-09-14T02:32:15.523Z,94760
2022-09-14T02:33:25.319Z,94759
2022-09-14T02:34:34.068Z,94762
2022-09-14T02:35:43.804Z,94766
2022-09-14T02:36:53.610Z,94766
2022-09-14T02:38:02.321Z,94758
2022-09-14T02:39:11.987Z,94765
2022-09-14T02:40:20.824Z,94763
2022-09-14T02:41:30.452Z,94768
2022-09-14T02:42:38.185Z,94767
2022-09-14T02:43:46.973Z,94767
2022-09-14T02:44:56.596Z,94770
2022-09-14T02:46:05.295Z,94768
2022-09-14T02:47:13.964Z,94768
2022-09-14T02:48:22.837Z,94766
2022-09-14T02:49:32.605Z,94763
2022-09-14T02:50:42.293Z,94759
2022-09-14T02:51:49.970Z,94761
2022-09-14T02:52:59.658Z,94756
2022-09-14T02:54:09.391Z,94754
2022-09-14T02:55:18.122Z,94749
2022-09-14T02:56:27.855Z,94748
2022-09-14T02:57:37.571Z,94744
2022-09-14T02:58:47.324Z,94737
2022-09-14T02:59:57.045Z,94730
2022-09-14T03:01:04.802Z,94727
2022-09-14T03:02:13.496Z,94719
2022-09-14T03:03:23.146Z,94715
2022-09-14T03:04:31.834Z,94714
2022-09-14T03:05:40.564Z,94713
2022-09-14T03:06:49.261Z,94711
2022-09-14T03:07:57.954Z,94712
2022-09-14T03:09:07.666Z,94708
2022-09-14T03:10:16.356Z,94710
2022-09-14T03:11:26.065Z,94707
2022-09-14T03:12:35.793Z,94710
2022-09-14T03:13:45.442Z,94707
2022-09-14T03:14:55.155Z,94703
2022-09-14T03:16:03.904Z,94699
2022-09-14T03:17:13.679Z,94698
2022-09-14T03:18:23.391Z,94697
2022-09-14T03:19:31.073Z,94697
2022-09-14T03:20:39.739Z,94697
2022-09-14T03:21:49.433Z,94695
2022-09-14T03:22:58.179Z,94696
2022-09-14T03:24:06.881Z,94694
2022-09-14T03:25:16.600Z,94700
2022-09-14T03:26:25.349Z,94706
2022-09-14T03:27:35.195Z,94709
2022-09-14T03:28:43.967Z,94710
2022-09-14T03:29:52.663Z,94712
2022-09-14T03:31:02.492Z,94710
2022-09-14T03:32:10.077Z,94709
2022-09-14T03:33:18.815Z,94711
2022-09-14T03:34:28.560Z,94708
2022-09-14T03:35:37.262Z,94709
2022-09-14T03:36:46.943Z,94714
2022-09-14T03:37:54.681Z,94711
2022-09-14T03:39:03.340Z,94713
2022-09-14T03:40:13.911Z,94712
2022-09-14T03:41:23.696Z,94710
2022-09-14T03:42:33.422Z,94706
2022-09-14T03:43:43.207Z,94705
2022-09-14T03:44:52.885Z,94704
2022-09-14T03:46:02.622Z,94701
2022-09-14T03:47:10.433Z,94699
2022-09-14T03:48:20.145Z,94698
2022-09-14T03:49:29.849Z,94701
2022-09-14T03:50:39.602Z,94696
2022-09-14T03:51:48.417Z,94696
2022-09-14T03:52:58.105Z,94695
2022-09-14T03:54:06.791Z,94691
2022-09-14T03:55:16.509Z,94698
2022-09-14T03:56:24.257Z,94693
2022-09-14T03:57:32.950Z,94699
2022-09-14T03:58:42.653Z,94694
2022-09-14T03:59:51.373Z,94695
2022-09-14T04:01:01.096Z,94691
2022-09-14T04:02:10.878Z,94694
2022-09-14T04:03:20.736Z,94692
2022-09-14T04:04:30.408Z,94686
2022-09-14T04:05:38.163Z,94682
2022-09-14T04:06:46.867Z,94682
2022-09-14T04:07:56.550Z,94682
2022-09-14T04:09:05.341Z,94683
2022-09-14T04:10:14.054Z,94688
2022-09-14T04:11:23.792Z,94692
2022-09-14T04:12:32.549Z,94691
2022-09-14T04:13:42.266Z,94696
2022-09-14T04:14:51.037Z,94696
2022-09-14T04:15:59.866Z,94702
2022-09-14T04:17:09.545Z,94700
2022-09-14T04:18:19.325Z,94709
2022-09-14T04:19:27.114Z,94713
2022-09-14T04:20:36.845Z,94716
2022-09-14T04:21:45.569Z,94715
2022-09-14T04:22:55.280Z,94714
2022-09-14T04:24:14.423Z,94715
2022-09-14T04:25:13.650Z,94717
2022-09-14T04:26:23.404Z,94729
2022-09-14T04:27:33.169Z,94728
2022-09-14T04:28:42.957Z,94733
2022-09-14T04:29:53.715Z,94733
2022-09-14T04:31:02.564Z,94729
2022-09-14T04:32:12.359Z,94732
2022-09-14T04:33:22.106Z,94730
2022-09-14T04:34:31.845Z,94723
2022-09-14T04:35:41.608Z,94717
2022-09-14T04:36:50.381Z,94717
2022-09-14T04:38:00.127Z,94723
2022-09-14T04:39:08.862Z,94725
2022-09-14T04:40:18.704Z,94718
2022-09-14T04:41:27.335Z,94716
2022-09-14T04:42:37.183Z,94717
2022-09-14T04:43:47.191Z,94719
2022-09-14T04:44:55.900Z,94718
2022-09-14T04:46:05.679Z,94716
2022-09-14T04:47:15.379Z,94714
2022-09-14T04:48:24.051Z,94717
2022-09-14T04:49:32.823Z,94713
2022-09-14T04:50:41.501Z,94719
2022-09-14T04:51:50.186Z,94716
2022-09-14T04:52:59.939Z,94712
2022-09-14T04:54:07.595Z,94712
2022-09-14T04:55:16.289Z,94705
2022-09-14T04:56:25.979Z,94701
2022-09-14T04:57:35.673Z,94701
2022-09-14T04:58:48.306Z,94705
2022-09-14T04:59:55.139Z,94700
2022-09-14T05:01:04.881Z,94713
2022-09-14T05:02:14.773Z,94710
2022-09-14T05:03:24.509Z,94707
2022-09-14T05:04:34.082Z,94706
2022-09-14T05:05:44.826Z,94708
2022-09-14T05:06:52.603Z,94711
2022-09-14T05:08:02.364Z,94713
2022-09-14T05:09:12.072Z,94719
2022-09-14T05:10:20.754Z,94709
2022-09-14T05:11:30.462Z,94715
2022-09-14T05:12:39.198Z,94713
2022-09-14T05:13:50.118Z,94711
2022-09-14T05:14:58.742Z,94709
2022-09-14T05:16:07.570Z,94711
2022-09-14T05:17:16.267Z,94711
2022-09-14T05:18:25.961Z,94704
2022-09-14T05:19:35.847Z,94710
2022-09-14T05:20:45.530Z,94711
2022-09-14T05:21:53.289Z,94707
2022-09-14T05:23:01.999Z,94707
2022-09-14T05:24:11.828Z,94704
2022-09-14T05:25:19.489Z,94708
2022-09-14T05:26:28.165Z,94708
2022-09-14T05:27:37.870Z,94694
2022-09-14T05:28:47.551Z,94688
2022-09-14T05:29:57.265Z,94693
2022-09-14T05:31:07.066Z,94694
2022-09-14T05:32:15.743Z,94694
2022-09-14T05:33:25.468Z,94695
2022-09-14T05:34:33.151Z,94688
2022-09-14T05:35:43.016Z,94690
2022-09-14T05:36:52.670Z,94687
2022-09-14T05:38:01.343Z,94683
2022-09-14T05:39:11.045Z,94688
2022-09-14T05:40:19.834Z,94685
2022-09-14T05:41:29.533Z,94683
2022-09-14T05:42:39.249Z,94683
2022-09-14T05:43:48.950Z,94685
2022-09-14T05:44:57.743Z,94685
2022-09-14T05:46:06.503Z,94683
2022-09-14T05:47:15.155Z,94684
2022-09-14T05:48:24.864Z,94685
2022-09-14T05:49:32.551Z,94688
2022-09-14T05:50:42.292Z,94686
2022-09-14T05:51:52.035Z,94686
2022-09-14T05:53:00.727Z,94678
2022-09-14T05:54:09.409Z,94678
2022-09-14T05:55:18.107Z,94678
2022-09-14T05:56:27.791Z,94675
2022-09-14T05:57:37.558Z,94679
2022-09-14T05:58:45.470Z,94681
2022-09-14T05:59:55.211Z,94676
2022-09-14T06:01:10.926Z,94678
2022-09-14T06:02:20.684Z,94677
2022-09-14T06:03:29.285Z,94679
2022-09-14T06:04:39.017Z,94682
2022-09-14T06:05:46.802Z,94679
2022-09-14T06:07:17.272Z,94675
2022-09-14T06:08:07.063Z,94676
2022-09-14T06:09:14.758Z,94676
2022-09-14T06:10:23.525Z,94677
2022-09-14T06:11:32.301Z,94676
2022-09-14T06:12:40.998Z,94678
2022-09-14T06:13:49.679Z,94675
2022-09-14T06:14:58.382Z,94678
2022-09-14T06:16:08.106Z,94676
2022-09-14T06:17:17.788Z,94680
2022-09-14T06:18:25.475Z,94684
2022-09-14T06:19:34.156Z,94688
2022-09-14T06:20:42.836Z,94688
2022-09-14T06:21:51.540Z,94693
2022-09-14T06:23:01.298Z,94697
2022-09-14T06:24:09.937Z,94701
2022-09-14T06:25:18.621Z,94697
2022-09-14T06:26:28.295Z,94704
2022-09-14T06:27:36.152Z,94707
2022-09-14T06:28:44.825Z,94712
2022-09-14T06:29:53.535Z,94713
2022-09-14T06:31:02.226Z,94711
2022-09-14T06:32:12.014Z,94709
2022-09-14T06:33:19.718Z,94711
2022-09-14T06:34:29.460Z,94712
2022-09-14T06:35:38.152Z,94703
2022-09-14T06:36:47.829Z,94703
2022-09-14T06:37:57.523Z,94712
2022-09-14T06:39:05.312Z,94721
2022-09-14T06:40:15.098Z,94718
2022-09-14T06:41:24.737Z,94718
2022-09-14T06:42:33.421Z,94715
2022-09-14T06:43:43.272Z,94716
2022-09-14T06:44:50.960Z,94714
2022-09-14T06:45:59.669Z,94710
2022-09-14T06:47:09.365Z,94712
2022-09-14T06:48:17.105Z,94713
2022-09-14T06:49:25.753Z,94717
2022-09-14T06:50:34.460Z,94720
2022-09-14T06:51:43.147Z,94723
2022-09-14T06:52:51.829Z,94720
2022-09-14T06:53:59.548Z,94729
2022-09-14T06:55:08.277Z,94731
2022-09-14T06:56:17.993Z,94730
2022-09-14T06:57:26.750Z,94733
2022-09-14T06:58:35.453Z,94727
2022-09-14T06:59:44.147Z,94713
2022-09-14T07:00:53.816Z,94711
2022-09-14T07:02:03.543Z,94706
2022-09-14T07:03:12.362Z,94698
2022-09-14T07:04:20.991Z,94695
2022-09-14T07:05:30.686Z,94686
2022-09-14T07:06:39.390Z,94687
2022-09-14T07:07:49.122Z,94690
2022-09-14T07:08:57.848Z,94685
2022-09-14T07:10:06.570Z,94686
2022-09-14T07:11:16.297Z,94685
2022-09-14T07:12:26.020Z,94687
2022-09-14T07:13:34.838Z,94687
2022-09-14T07:14:44.578Z,94688
2022-09-14T07:15:53.323Z,94691
2022-09-14T07:17:02.066Z,94693
2022-09-14T07:18:10.829Z,94689
2022-09-14T07:19:19.576Z,94690
2022-09-14T07:20:29.295Z,94690
2022-09-14T07:21:37.014Z,94686
2022-09-14T07:22:45.681Z,94687
2022-09-14T07:23:55.444Z,94697
2022-09-14T07:25:03.146Z,94695
2022-09-14T07:26:12.840Z,94698
2022-09-14T07:27:20.628Z,94704
2022-09-14T07:28:32.315Z,94701
2022-09-14T07:29:39.890Z,94701
2022-09-14T07:30:47.728Z,94696
2022-09-14T07:31:56.486Z,94695
2022-09-14T07:33:06.223Z,94705
2022-09-14T07:34:14.933Z,94704
2022-09-14T07:35:24.618Z,94712
2022-09-14T07:36:34.929Z,94708
2022-09-14T07:37:41.996Z,94705
2022-09-14T07:38:53.061Z,94705
2022-09-14T07:40:01.421Z,94708
2022-09-14T07:41:10.047Z,94706
2022-09-14T07:42:19.806Z,94706
2022-09-14T07:43:28.612Z,94707
2022-09-14T07:44:38.188Z,94709
2022-09-14T07:45:46.943Z,94713
2022-09-14T07:46:55.622Z,94708
2022-09-14T07:48:05.324Z,94708
2022-09-14T07:49:14.022Z,94706
2022-09-14T07:50:21.809Z,94703
2022-09-14T07:51:31.438Z,94704
2022-09-14T07:52:39.111Z,94704
2022-09-14T07:53:48.826Z,94700
2022-09-14T07:54:57.527Z,94704
2022-09-14T07:56:06.213Z,94701
2022-09-14T07:57:15.943Z,94707
2022-09-14T07:58:25.624Z,94703
2022-09-14T07:59:36.730Z,94704
2022-09-14T08:00:45.022Z,94705
2022-09-14T08:01:52.887Z,94710
2022-09-14T08:03:01.407Z,94704
2022-09-14T08:04:10.105Z,94707
2022-09-14T08:05:19.934Z,94714
2022-09-14T08:06:28.619Z,94717
2022-09-14T08:07:36.304Z,94722
2022-09-14T08:08:45.986Z,94723
2022-09-14T08:09:55.730Z,94733
2022-09-14T08:11:04.454Z,94732
2022-09-14T08:12:13.151Z,94729
2022-09-14T08:13:21.852Z,94727
2022-09-14T08:14:31.549Z,94736
2022-09-14T08:15:41.285Z,94744
2022-09-14T08:16:50.099Z,94733
2022-09-14T08:17:58.684Z,94733
2022-09-14T08:19:07.369Z,94735
2022-09-14T08:20:15.066Z,94738
2022-09-14T08:21:23.786Z,94737
2022-09-14T08:22:32.543Z,94738
2022-09-14T08:23:41.253Z,94734
2022-09-14T08:24:50.958Z,94731
2022-09-14T08:25:58.649Z,94731
2022-09-14T08:27:07.328Z,94731
2022-09-14T08:28:18.038Z,94733
2022-09-14T08:29:26.753Z,94732
2022-09-14T08:30:36.432Z,94731
2022-09-14T08:31:45.256Z,94729
2022-09-14T08:32:53.838Z,94736
2022-09-14T08:34:04.666Z,94727
2022-09-14T08:35:13.356Z,94725
2022-09-14T08:36:24.026Z,94732
2022-09-14T08:37:32.703Z,94727
2022-09-14T08:38:41.374Z,94738
2022-09-14T08:39:51.807Z,94743
2022-09-14T08:40:58.808Z,94735
2022-09-14T08:42:07.521Z,94736
2022-09-14T08:43:17.292Z,94734
2022-09-14T08:44:26.007Z,94737
2022-09-14T08:45:35.766Z,94743
2022-09-14T08:46:43.376Z,94746
2022-09-14T08:47:52.141Z,94745
2022-09-14T08:49:01.821Z,94749
2022-09-14T08:50:10.583Z,94749
2022-09-14T08:51:20.223Z,94740
2022-09-14T08:52:28.892Z,94747
2022-09-14T08:53:38.581Z,94733
2022-09-14T08:54:48.370Z,94741
2022-09-14T08:55:57.058Z,94733
2022-09-14T08:57:06.792Z,94742
2022-09-14T08:58:16.470Z,94742
2022-09-14T08:59:26.202Z,94741
2022-09-14T09:00:34.944Z,94739
2022-09-14T09:01:43.607Z,94746
2022-09-14T09:02:52.343Z,94742
2022-09-14T09:04:02.085Z,94745
2022-09-14T09:05:10.721Z,94752
2022-09-14T09:06:19.413Z,94758
2022-09-14T09:07:29.106Z,94756
2022-09-14T09:08:36.925Z,94752
2022-09-14T09:09:45.773Z,94759
2022-09-14T09:10:55.469Z,94753
2022-09-14T09:12:05.165Z,94768
2022-09-14T09:13:14.836Z,94754
2022-09-14T09:14:22.561Z,94755
2022-09-14T09:15:32.263Z,94761
2022-09-14T09:16:41.993Z,94768
2022-09-14T09:17:49.640Z,94754
2022-09-14T09:18:59.352Z,94754
2022-09-14T09:20:08.073Z,94762
2022-09-14T09:21:17.727Z,94771
2022-09-14T09:22:27.416Z,94764
2022-09-14T09:23:38.110Z,94759
2022-09-14T09:24:46.766Z,94764
2022-09-14T09:25:55.451Z,94773
2022-09-14T09:27:04.157Z,94776
2022-09-14T09:28:13.851Z,94777
2022-09-14T09:29:23.548Z,94768
2022-09-14T09:30:33.265Z,94773
2022-09-14T09:31:43.010Z,94773
2022-09-14T09:32:51.680Z,94777
2022-09-14T09:34:00.398Z,94764
2022-09-14T09:35:10.106Z,94758
2022-09-14T09:36:17.809Z,94768
2022-09-14T09:37:27.572Z,94768
2022-09-14T09:38:36.273Z,94772
2022-09-14T09:39:44.991Z,94771
2022-09-14T09:40:54.649Z,94765
2022-09-14T09:42:03.351Z,94771
2022-09-14T09:43:13.065Z,94767
2022-09-14T09:44:23.767Z,94764
2022-09-14T09:45:31.463Z,94767
2022-09-14T09:46:41.245Z,94765
2022-09-14T09:47:49.891Z,94762
2022-09-14T09:48:59.580Z,94772
2022-09-14T09:50:09.258Z,94784
2022-09-14T09:51:19.868Z,94792
2022-09-14T09:52:25.625Z,94786
2022-09-14T09:53:36.275Z,94789
2022-09-14T09:54:44.979Z,94799
2022-09-14T09:55:54.668Z,94782
2022-09-14T09:57:03.368Z,94783
2022-09-14T09:58:12.057Z,94785
2022-09-14T09:59:21.747Z,94788
2022-09-14T10:00:29.552Z,94778
2022-09-14T10:01:38.406Z,94780
2022-09-14T10:02:48.024Z,94770
2022-09-14T10:03:56.724Z,94792
2022-09-14T10:05:05.458Z,94770
2022-09-14T10:06:15.181Z,94771
2022-09-14T10:07:23.875Z,94764
2022-09-14T10:08:33.591Z,94767
2022-09-14T10:09:42.294Z,94769
2022-09-14T10:10:50.981Z,94768
2022-09-14T10:12:00.782Z,94761
2022-09-14T10:13:09.476Z,94758
2022-09-14T10:14:19.180Z,94754
2022-09-14T10:15:28.860Z,94752
2022-09-14T10:16:37.649Z,94746
2022-09-14T10:17:47.270Z,94745
2022-09-14T10:18:56.023Z,94743
2022-09-14T10:20:05.682Z,94730
2022-09-14T10:21:15.365Z,94734
2022-09-14T10:22:26.470Z,94728
2022-09-14T10:23:33.781Z,94735
2022-09-14T10:24:42.478Z,94724
2022-09-14T10:25:52.188Z,94727
2022-09-14T10:27:01.884Z,94729
2022-09-14T10:28:10.562Z,94743
2022-09-14T10:29:19.328Z,94718
2022-09-14T10:30:29.002Z,94730
2022-09-14T10:31:37.728Z,94722
2022-09-14T10:32:47.410Z,94724
2022-09-14T10:33:57.133Z,94717
2022-09-14T10:35:05.854Z,94719
2022-09-14T10:36:14.567Z,94719
2022-09-14T10:37:24.261Z,94715
2022-09-14T10:38:34.006Z,94718
2022-09-14T10:39:42.746Z,94712
2022-09-14T10:40:52.556Z,94716
2022-09-14T10:42:02.160Z,94713
2022-09-14T10:43:10.855Z,94713
2022-09-14T10:44:19.621Z,94714
2022-09-14T10:45:28.307Z,94703
2022-09-14T10:46:37.045Z,94712
2022-09-14T10:47:46.703Z,94704
2022-09-14T10:48:54.374Z,94701
2022-09-14T10:50:04.039Z,94703
2022-09-14T10:51:12.749Z,94700
2022-09-14T10:52:20.436Z,94695
2022-09-14T10:53:30.115Z,94694
2022-09-14T10:54:39.803Z,94695
2022-09-14T10:55:49.516Z,94683
2022-09-14T10:56:59.324Z,94687
2022-09-14T10:58:07.947Z,94685
2022-09-14T10:59:16.612Z,94683
2022-09-14T11:00:26.316Z,94687
2022-09-14T11:01:34.016Z,94692
2022-09-14T11:02:42.730Z,94704
2022-09-14T11:03:51.522Z,94693
2022-09-14T11:05:01.210Z,94689
2022-09-14T11:06:10.903Z,94687
2022-09-14T11:07:19.564Z,94684
2022-09-14T11:08:28.256Z,94676
2022-09-14T11:09:37.987Z,94676
2022-09-14T11:10:46.749Z,94674
2022-09-14T11:11:56.427Z,94677
2022-09-14T11:13:05.238Z,94678
2022-09-14T11:14:15.350Z,94668
2022-09-14T11:15:25.249Z,94668
2022-09-14T11:16:33.932Z,94677
2022-09-14T11:17:42.614Z,94679
2022-09-14T11:18:52.310Z,94669
2022-09-14T11:20:00.990Z,94671
2022-09-14T11:21:10.707Z,94670
2022-09-14T11:22:19.407Z,94666
2022-09-14T11:23:28.082Z,94667
2022-09-14T11:24:37.760Z,94672
2022-09-14T11:25:46.583Z,94659
2022-09-14T11:26:55.590Z,94656
2022-09-14T11:28:05.571Z,94658
2022-09-14T11:29:14.503Z,94655
2022-09-14T11:30:23.107Z,94654
2022-09-14T11:31:32.846Z,94649
2022-09-14T11:32:42.474Z,94649
2022-09-14T11:33:52.210Z,94647
2022-09-14T11:34:59.871Z,94663
2022-09-14T11:36:08.553Z,94650
2022-09-14T11:37:18.256Z,94646
2022-09-14T11:38:26.959Z,94643
2022-09-14T11:39:35.658Z,94642
2022-09-14T11:40:44.377Z,94636
2022-09-14T11:41:53.042Z,94641
2022-09-14T11:43:02.726Z,94647
2022-09-14T11:44:10.575Z,94643
2022-09-14T11:45:18.329Z,94639
2022-09-14T11:46:27.958Z,94640
2022-09-14T11:47:36.611Z,94641
2022-09-14T11:48:45.336Z,94638
2022-09-14T11:49:54.046Z,94638
2022-09-14T11:51:02.722Z,94630
2022-09-14T11:52:12.433Z,94632
2022-09-14T11:53:19.102Z,94627
2022-09-14T11:54:27.760Z,94629
2022-09-14T11:55:37.483Z,94632
2022-09-14T11:56:46.159Z,94630
2022-09-14T11:57:54.829Z,94633
2022-09-14T11:59:03.542Z,94617
2022-09-14T12:00:12.210Z,94609
2022-09-14T12:01:21.985Z,94616
2022-09-14T12:02:31.709Z,94606
2022-09-14T12:03:40.430Z,94601
2022-09-14T12:04:50.047Z,94603
2022-09-14T12:05:58.732Z,94608
2022-09-14T12:07:07.538Z,94605
2022-09-14T12:08:16.214Z,94603
2022-09-14T12:09:24.938Z,94601
2022-09-14T12:10:34.622Z,94604
2022-09-14T12:11:44.294Z,94605
2022-09-14T12:12:53.012Z,94608
2022-09-14T12:14:02.692Z,94602
2022-09-14T12:15:10.388Z,94603
2022-09-14T12:16:20.162Z,94604
2022-09-14T12:17:39.208Z,94596
2022-09-14T12:18:39.445Z,94596
2022-09-14T12:19:49.120Z,94600
2022-09-14T12:20:57.820Z,94601
2022-09-14T12:22:06.507Z,94595
2022-09-14T12:23:16.182Z,94601
2022-09-14T12:24:24.107Z,94597
2022-09-14T12:25:32.778Z,94599
2022-09-14T12:26:41.463Z,94593
2022-09-14T12:27:50.151Z,94606
2022-09-14T12:28:59.836Z,94595
2022-09-14T12:30:08.560Z,94597
2022-09-14T12:31:18.276Z,94598
2022-09-14T12:32:25.905Z,94606
2022-09-14T12:33:34.584Z,94606
2022-09-14T12:34:44.253Z,94605
2022-09-14T12:35:52.106Z,94605
2022-09-14T12:37:00.806Z,94609
2022-09-14T12:38:09.505Z,94605
2022-09-14T12:39:18.189Z,94616
2022-09-14T12:40:27.939Z,94610
2022-09-14T12:41:36.589Z,94618
2022-09-14T12:42:45.280Z,94618
2022-09-14T12:43:54.953Z,94614
2022-09-14T12:45:02.608Z,94613
2022-09-14T12:46:11.347Z,94607
2022-09-14T12:47:20.022Z,94606
2022-09-14T12:48:29.739Z,94608
2022-09-14T12:49:39.424Z,94621
2022-09-14T12:50:48.082Z,94619
2022-09-14T12:51:57.758Z,94615
2022-09-14T12:53:07.670Z,94624
2022-09-14T12:54:17.347Z,94625
2022-09-14T12:55:26.033Z,94621
2022-09-14T12:56:35.825Z,94626
2022-09-14T12:57:44.552Z,94622
2022-09-14T12:58:53.439Z,94609
2022-09-14T13:00:02.083Z,94627
2022-09-14T13:01:10.842Z,94624
2022-09-14T13:02:20.537Z,94616
2022-09-14T13:03:28.149Z,94620
2022-09-14T13:04:37.863Z,94614
2022-09-14T13:05:47.654Z,94621
2022-09-14T13:06:57.217Z,94606
2022-09-14T13:08:06.904Z,94603
2022-09-14T13:09:14.588Z,94610
2022-09-14T13:10:23.314Z,94608
2022-09-14T13:11:32.987Z,94610
2022-09-14T13:12:42.658Z,94606
2022-09-14T13:13:51.371Z,94605
2022-09-14T13:15:00.034Z,94602
2022-09-14T13:16:09.762Z,94589
2022-09-14T13:17:19.424Z,94593
2022-09-14T13:18:28.325Z,94601
2022-09-14T13:19:36.823Z,94599
2022-09-14T13:20:46.518Z,94590
2022-09-14T13:21:55.244Z,94595
2022-09-14T13:23:04.924Z,94590
2022-09-14T13:24:13.589Z,94593
2022-09-14T13:25:23.295Z,94594
2022-09-14T13:26:32.968Z,94591
2022-09-14T13:27:40.741Z,94595
2022-09-14T13:28:49.533Z,94590
2022-09-14T13:29:59.153Z,94593
2022-09-14T13:31:07.896Z,94587
2022-09-14T13:32:17.561Z,94587
2022-09-14T13:33:26.261Z,94587
2022-09-14T13:34:34.908Z,94596
2022-09-14T13:35:44.582Z,94592
2022-09-14T13:36:52.250Z,94592
2022-09-14T13:38:01.967Z,94588
2022-09-14T13:39:11.647Z,94587
2022-09-14T13:40:20.343Z,94581
2022-09-14T13:41:28.983Z,94583
2022-09-14T13:42:37.689Z,94572
2022-09-14T13:43:47.365Z,94580
2022-09-14T13:44:57.064Z,94574
2022-09-14T13:46:05.841Z,94576
2022-09-14T13:47:15.499Z,94575
2022-09-14T13:48:25.182Z,94579
2022-09-14T13:49:32.885Z,94571
2022-09-14T13:50:41.596Z,94568
2022-09-14T13:51:50.288Z,94570
2022-09-14T13:53:02.781Z,94564
2022-09-14T13:54:09.661Z,94568
2022-09-14T13:55:18.314Z,94569
2022-09-14T13:56:27.030Z,94575
2022-09-14T13:57:36.705Z,94580
2022-09-14T13:58:44.386Z,94576
2022-09-14T13:59:53.053Z,94573
2022-09-14T14:01:02.888Z,94575
2022-09-14T14:02:12.621Z,94575
2022-09-14T14:03:22.293Z,94579
2022-09-14T14:04:31.020Z,94571
2022-09-14T14:05:39.697Z,94575
2022-09-14T14:06:49.369Z,94575
2022-09-14T14:07:57.083Z,94574
2022-09-14T14:09:06.773Z,94579
2022-09-14T14:10:19.986Z,94576
2022-09-14T14:11:26.104Z,94581
2022-09-14T14:12:35.801Z,94581
2022-09-14T14:13:43.554Z,94586
2022-09-14T14:14:52.149Z,94586
2022-09-14T14:16:01.848Z,94591
2022-09-14T14:17:09.530Z,94591
2022-09-14T14:18:19.199Z,94592
2022-09-14T14:19:28.905Z,94587
2022-09-14T14:20:38.605Z,94588
2022-09-14T14:21:48.284Z,94594
2022-09-14T14:22:57.976Z,94591
2022-09-14T14:24:12.878Z,94588
2022-09-14T14:25:17.353Z,94592
2022-09-14T14:26:25.078Z,94592
2022-09-14T14:27:34.790Z,94595
2022-09-14T14:28:43.986Z,94593
2022-09-14T14:29:54.265Z,94592
2022-09-14T14:31:07.936Z,94593
2022-09-14T14:32:12.737Z,94588
2022-09-14T14:33:22.353Z,94594
2022-09-14T14:34:30.013Z,94595
2022-09-14T14:35:38.673Z,94596
2022-09-14T14:36:48.379Z,94592
2022-09-14T14:37:56.064Z,94594
2022-09-14T14:39:04.765Z,94604
2022-09-14T14:40:13.562Z,94589
2022-09-14T14:41:23.206Z,94584
2022-09-14T14:42:32.933Z,94590
2022-09-14T14:43:41.579Z,94590
2022-09-14T14:44:51.259Z,94584
2022-09-14T14:46:00.018Z,94589
2022-09-14T14:47:08.638Z,94583
2022-09-14T14:48:17.339Z,94585
2022-09-14T14:49:26.006Z,94582
2022-09-14T14:50:35.707Z,94591